sensor_id;sensor_type;location;lat;lon;timestamp;temperature;humidity
68912;SHT31;55953;51.650;-0.522;2024-03-25T00:01:27;6.16;72.22
68912;SHT31;55953;51.650;-0.522;2024-03-25T00:03:55;6.07;72.45
68912;SHT31;55953;51.650;-0.522;2024-03-25T00:06:22;6.04;72.56
68912;SHT31;55953;51.650;-0.522;2024-03-25T00:08:50;5.98;72.91
68912;SHT31;55953;51.650;-0.522;2024-03-25T00:11:18;5.96;73.21
68912;SHT31;55953;51.650;-0.522;2024-03-25T00:13:45;5.95;73.28
68912;SHT31;55953;51.650;-0.522;2024-03-25T00:16:13;6.09;73.18
68912;SHT31;55953;51.650;-0.522;2024-03-25T00:18:42;6.16;73.06
68912;SHT31;55953;51.650;-0.522;2024-03-25T00:21:09;6.19;73.21
68912;SHT31;55953;51.650;-0.522;2024-03-25T00:23:37;6.24;73.26
68912;SHT31;55953;51.650;-0.522;2024-03-25T00:26:04;6.27;73.14
68912;SHT31;55953;51.650;-0.522;2024-03-25T00:28:32;6.22;73.11
68912;SHT31;55953;51.650;-0.522;2024-03-25T00:30:59;6.30;72.93
68912;SHT31;55953;51.650;-0.522;2024-03-25T00:33:27;6.34;72.78
68912;SHT31;55953;51.650;-0.522;2024-03-25T00:35:55;6.30;73.27
68912;SHT31;55953;51.650;-0.522;2024-03-25T00:38:22;6.30;73.34
68912;SHT31;55953;51.650;-0.522;2024-03-25T00:40:50;6.32;73.53
68912;SHT31;55953;51.650;-0.522;2024-03-25T00:43:18;6.33;73.68
68912;SHT31;55953;51.650;-0.522;2024-03-25T00:45:47;6.34;73.83
68912;SHT31;55953;51.650;-0.522;2024-03-25T00:48:14;6.41;73.75
68912;SHT31;55953;51.650;-0.522;2024-03-25T00:50:42;6.45;73.53
68912;SHT31;55953;51.650;-0.522;2024-03-25T00:53:09;6.42;73.67
68912;SHT31;55953;51.650;-0.522;2024-03-25T00:55:37;6.40;73.82
68912;SHT31;55953;51.650;-0.522;2024-03-25T00:58:05;6.43;73.87
68912;SHT31;55953;51.650;-0.522;2024-03-25T01:00:32;6.49;73.77
68912;SHT31;55953;51.650;-0.522;2024-03-25T01:03:00;6.53;73.68
68912;SHT31;55953;51.650;-0.522;2024-03-25T01:05:28;6.48;73.88
68912;SHT31;55953;51.650;-0.522;2024-03-25T01:07:55;6.54;74.00
68912;SHT31;55953;51.650;-0.522;2024-03-25T01:10:23;6.67;73.85
68912;SHT31;55953;51.650;-0.522;2024-03-25T01:12:51;6.76;73.61
68912;SHT31;55953;51.650;-0.522;2024-03-25T01:15:18;6.72;73.60
68912;SHT31;55953;51.650;-0.522;2024-03-25T01:17:46;6.69;73.76
68912;SHT31;55953;51.650;-0.522;2024-03-25T01:20:13;6.70;73.90
68912;SHT31;55953;51.650;-0.522;2024-03-25T01:22:42;6.65;74.07
68912;SHT31;55953;51.650;-0.522;2024-03-25T01:25:10;6.75;74.14
68912;SHT31;55953;51.650;-0.522;2024-03-25T01:27:37;6.89;73.72
68912;SHT31;55953;51.650;-0.522;2024-03-25T01:30:05;6.97;73.52
68912;SHT31;55953;51.650;-0.522;2024-03-25T01:32:34;6.94;73.67
68912;SHT31;55953;51.650;-0.522;2024-03-25T01:35:02;6.94;73.69
68912;SHT31;55953;51.650;-0.522;2024-03-25T01:37:30;6.96;73.78
68912;SHT31;55953;51.650;-0.522;2024-03-25T01:39:58;6.98;73.76
68912;SHT31;55953;51.650;-0.522;2024-03-25T01:42:25;7.06;73.53
68912;SHT31;55953;51.650;-0.522;2024-03-25T01:44:54;7.14;73.38
68912;SHT31;55953;51.650;-0.522;2024-03-25T01:47:21;7.14;73.22
68912;SHT31;55953;51.650;-0.522;2024-03-25T01:49:49;7.03;73.36
68912;SHT31;55953;51.650;-0.522;2024-03-25T01:52:20;6.95;73.61
68912;SHT31;55953;51.650;-0.522;2024-03-25T01:54:50;6.86;73.72
68912;SHT31;55953;51.650;-0.522;2024-03-25T01:57:18;6.77;73.83
68912;SHT31;55953;51.650;-0.522;2024-03-25T01:59:47;6.63;73.98
68912;SHT31;55953;51.650;-0.522;2024-03-25T02:02:15;6.56;74.17
68912;SHT31;55953;51.650;-0.522;2024-03-25T02:04:43;6.51;74.31
68912;SHT31;55953;51.650;-0.522;2024-03-25T02:07:12;6.51;74.27
68912;SHT31;55953;51.650;-0.522;2024-03-25T02:09:41;6.46;74.32
68912;SHT31;55953;51.650;-0.522;2024-03-25T02:12:09;6.36;74.60
68912;SHT31;55953;51.650;-0.522;2024-03-25T02:14:37;6.27;74.64
68912;SHT31;55953;51.650;-0.522;2024-03-25T02:17:05;6.15;74.89
68912;SHT31;55953;51.650;-0.522;2024-03-25T02:19:33;6.10;75.13
68912;SHT31;55953;51.650;-0.522;2024-03-25T02:22:04;6.11;75.13
68912;SHT31;55953;51.650;-0.522;2024-03-25T02:24:32;6.08;75.24
68912;SHT31;55953;51.650;-0.522;2024-03-25T02:27:01;6.06;75.17
68912;SHT31;55953;51.650;-0.522;2024-03-25T02:29:35;5.95;75.50
68912;SHT31;55953;51.650;-0.522;2024-03-25T02:32:02;5.93;75.76
68912;SHT31;55953;51.650;-0.522;2024-03-25T02:34:30;5.99;75.80
68912;SHT31;55953;51.650;-0.522;2024-03-25T02:36:58;6.07;75.55
68912;SHT31;55953;51.650;-0.522;2024-03-25T02:39:26;6.12;75.44
68912;SHT31;55953;51.650;-0.522;2024-03-25T02:41:53;6.13;75.39
68912;SHT31;55953;51.650;-0.522;2024-03-25T02:44:22;6.12;75.48
68912;SHT31;55953;51.650;-0.522;2024-03-25T02:46:50;6.07;75.51
68912;SHT31;55953;51.650;-0.522;2024-03-25T02:49:19;6.04;75.68
68912;SHT31;55953;51.650;-0.522;2024-03-25T02:51:47;6.06;75.67
68912;SHT31;55953;51.650;-0.522;2024-03-25T02:54:15;6.05;75.56
68912;SHT31;55953;51.650;-0.522;2024-03-25T02:56:44;6.05;75.58
68912;SHT31;55953;51.650;-0.522;2024-03-25T02:59:11;6.01;75.61
68912;SHT31;55953;51.650;-0.522;2024-03-25T03:01:39;5.98;75.69
68912;SHT31;55953;51.650;-0.522;2024-03-25T03:04:07;5.89;75.73
68912;SHT31;55953;51.650;-0.522;2024-03-25T03:06:34;5.78;75.91
68912;SHT31;55953;51.650;-0.522;2024-03-25T03:09:02;5.73;76.20
68912;SHT31;55953;51.650;-0.522;2024-03-25T03:11:29;5.70;76.20
68912;SHT31;55953;51.650;-0.522;2024-03-25T03:13:57;5.68;76.20
68912;SHT31;55953;51.650;-0.522;2024-03-25T03:16:25;5.63;76.28
68912;SHT31;55953;51.650;-0.522;2024-03-25T03:18:52;5.64;76.33
68912;SHT31;55953;51.650;-0.522;2024-03-25T03:21:20;5.68;76.40
68912;SHT31;55953;51.650;-0.522;2024-03-25T03:23:47;5.73;76.29
68912;SHT31;55953;51.650;-0.522;2024-03-25T03:26:15;5.77;76.35
68912;SHT31;55953;51.650;-0.522;2024-03-25T03:28:42;5.75;76.47
68912;SHT31;55953;51.650;-0.522;2024-03-25T03:31:10;5.78;76.48
68912;SHT31;55953;51.650;-0.522;2024-03-25T03:33:38;5.84;76.37
68912;SHT31;55953;51.650;-0.522;2024-03-25T03:36:05;5.89;76.35
68912;SHT31;55953;51.650;-0.522;2024-03-25T03:38:33;5.91;76.29
68912;SHT31;55953;51.650;-0.522;2024-03-25T03:41:02;5.87;76.31
68912;SHT31;55953;51.650;-0.522;2024-03-25T03:43:30;5.83;76.52
68912;SHT31;55953;51.650;-0.522;2024-03-25T03:45:58;5.79;76.44
68912;SHT31;55953;51.650;-0.522;2024-03-25T03:48:25;5.70;76.58
68912;SHT31;55953;51.650;-0.522;2024-03-25T03:50:53;5.65;76.67
68912;SHT31;55953;51.650;-0.522;2024-03-25T03:53:21;5.67;76.75
68912;SHT31;55953;51.650;-0.522;2024-03-25T03:55:55;5.67;76.77
68912;SHT31;55953;51.650;-0.522;2024-03-25T03:58:25;5.75;76.86
68912;SHT31;55953;51.650;-0.522;2024-03-25T04:00:53;5.81;76.65
68912;SHT31;55953;51.650;-0.522;2024-03-25T04:03:20;5.88;76.62
68912;SHT31;55953;51.650;-0.522;2024-03-25T04:05:49;5.86;76.68
68912;SHT31;55953;51.650;-0.522;2024-03-25T04:08:16;5.89;76.80
68912;SHT31;55953;51.650;-0.522;2024-03-25T04:10:44;5.83;76.84
68912;SHT31;55953;51.650;-0.522;2024-03-25T04:13:12;5.85;77.05
68912;SHT31;55953;51.650;-0.522;2024-03-25T04:15:40;5.91;76.83
68912;SHT31;55953;51.650;-0.522;2024-03-25T04:18:10;5.95;76.71
68912;SHT31;55953;51.650;-0.522;2024-03-25T04:20:38;5.95;76.89
68912;SHT31;55953;51.650;-0.522;2024-03-25T04:23:08;6.01;76.82
68912;SHT31;55953;51.650;-0.522;2024-03-25T04:25:36;6.10;76.63
68912;SHT31;55953;51.650;-0.522;2024-03-25T04:28:07;6.12;76.46
68912;SHT31;55953;51.650;-0.522;2024-03-25T04:30:34;6.15;76.45
68912;SHT31;55953;51.650;-0.522;2024-03-25T04:33:02;6.21;76.32
68912;SHT31;55953;51.650;-0.522;2024-03-25T04:35:30;6.25;76.25
68912;SHT31;55953;51.650;-0.522;2024-03-25T04:37:57;6.27;76.26
68912;SHT31;55953;51.650;-0.522;2024-03-25T04:40:25;6.27;76.30
68912;SHT31;55953;51.650;-0.522;2024-03-25T04:42:52;6.25;76.27
68912;SHT31;55953;51.650;-0.522;2024-03-25T04:45:20;6.21;76.43
68912;SHT31;55953;51.650;-0.522;2024-03-25T04:47:48;6.23;76.48
68912;SHT31;55953;51.650;-0.522;2024-03-25T04:50:15;6.25;76.38
68912;SHT31;55953;51.650;-0.522;2024-03-25T04:52:43;6.27;76.35
68912;SHT31;55953;51.650;-0.522;2024-03-25T04:55:11;6.27;76.38
68912;SHT31;55953;51.650;-0.522;2024-03-25T04:57:38;6.31;76.30
68912;SHT31;55953;51.650;-0.522;2024-03-25T05:00:06;6.37;76.27
68912;SHT31;55953;51.650;-0.522;2024-03-25T05:02:38;6.44;76.19
68912;SHT31;55953;51.650;-0.522;2024-03-25T05:05:06;6.49;76.16
68912;SHT31;55953;51.650;-0.522;2024-03-25T05:07:34;6.53;75.96
68912;SHT31;55953;51.650;-0.522;2024-03-25T05:10:03;6.48;76.05
68912;SHT31;55953;51.650;-0.522;2024-03-25T05:12:32;6.48;76.19
68912;SHT31;55953;51.650;-0.522;2024-03-25T05:15:00;6.52;76.22
68912;SHT31;55953;51.650;-0.522;2024-03-25T05:17:28;6.59;76.05
68912;SHT31;55953;51.650;-0.522;2024-03-25T05:19:55;6.61;75.98
68912;SHT31;55953;51.650;-0.522;2024-03-25T05:22:23;6.60;76.03
68912;SHT31;55953;51.650;-0.522;2024-03-25T05:24:50;6.62;76.04
68912;SHT31;55953;51.650;-0.522;2024-03-25T05:27:18;6.70;76.12
68912;SHT31;55953;51.650;-0.522;2024-03-25T05:29:46;6.79;76.02
68912;SHT31;55953;51.650;-0.522;2024-03-25T05:32:13;6.80;75.84
68912;SHT31;55953;51.650;-0.522;2024-03-25T05:34:42;6.77;75.99
68912;SHT31;55953;51.650;-0.522;2024-03-25T05:37:10;6.78;76.16
68912;SHT31;55953;51.650;-0.522;2024-03-25T05:39:37;6.85;76.23
68912;SHT31;55953;51.650;-0.522;2024-03-25T05:42:05;6.87;76.12
68912;SHT31;55953;51.650;-0.522;2024-03-25T05:44:33;6.85;76.27
68912;SHT31;55953;51.650;-0.522;2024-03-25T05:47:00;6.89;76.48
68912;SHT31;55953;51.650;-0.522;2024-03-25T05:49:28;6.93;76.48
68912;SHT31;55953;51.650;-0.522;2024-03-25T05:51:56;7.02;76.20
68912;SHT31;55953;51.650;-0.522;2024-03-25T05:54:23;7.09;76.07
68912;SHT31;55953;51.650;-0.522;2024-03-25T05:56:51;7.12;76.21
68912;SHT31;55953;51.650;-0.522;2024-03-25T05:59:18;7.19;75.94
68912;SHT31;55953;51.650;-0.522;2024-03-25T06:01:46;7.22;76.19
68912;SHT31;55953;51.650;-0.522;2024-03-25T06:04:14;7.21;76.04
68912;SHT31;55953;51.650;-0.522;2024-03-25T06:06:42;7.13;76.29
68912;SHT31;55953;51.650;-0.522;2024-03-25T06:09:10;7.06;76.66
68912;SHT31;55953;51.650;-0.522;2024-03-25T06:11:37;7.05;76.73
68912;SHT31;55953;51.650;-0.522;2024-03-25T06:14:05;7.08;76.79
68912;SHT31;55953;51.650;-0.522;2024-03-25T06:16:33;7.10;76.71
68912;SHT31;55953;51.650;-0.522;2024-03-25T06:19:00;7.04;76.97
68912;SHT31;55953;51.650;-0.522;2024-03-25T06:21:28;7.03;77.31
68912;SHT31;55953;51.650;-0.522;2024-03-25T06:23:56;7.08;77.45
68912;SHT31;55953;51.650;-0.522;2024-03-25T06:26:23;7.20;77.30
68912;SHT31;55953;51.650;-0.522;2024-03-25T06:28:52;7.22;77.22
68912;SHT31;55953;51.650;-0.522;2024-03-25T06:31:20;7.26;77.66
68912;SHT31;55953;51.650;-0.522;2024-03-25T06:34:06;7.40;77.65
68912;SHT31;55953;51.650;-0.522;2024-03-25T06:36:48;7.41;77.56
68912;SHT31;55953;51.650;-0.522;2024-03-25T06:39:16;7.39;77.92
68912;SHT31;55953;51.650;-0.522;2024-03-25T06:41:44;7.44;78.06
68912;SHT31;55953;51.650;-0.522;2024-03-25T06:44:11;7.51;77.87
68912;SHT31;55953;51.650;-0.522;2024-03-25T06:46:39;7.56;77.90
68912;SHT31;55953;51.650;-0.522;2024-03-25T06:49:07;7.58;78.03
68912;SHT31;55953;51.650;-0.522;2024-03-25T06:51:34;7.59;78.12
68912;SHT31;55953;51.650;-0.522;2024-03-25T06:54:02;7.59;78.38
68912;SHT31;55953;51.650;-0.522;2024-03-25T06:56:30;7.59;78.46
68912;SHT31;55953;51.650;-0.522;2024-03-25T06:58:57;7.61;78.57
68912;SHT31;55953;51.650;-0.522;2024-03-25T07:01:25;7.64;78.63
68912;SHT31;55953;51.650;-0.522;2024-03-25T07:03:53;7.72;78.92
68912;SHT31;55953;51.650;-0.522;2024-03-25T07:06:21;7.88;78.75
68912;SHT31;55953;51.650;-0.522;2024-03-25T07:08:49;7.95;78.60
68912;SHT31;55953;51.650;-0.522;2024-03-25T07:11:16;8.01;78.68
68912;SHT31;55953;51.650;-0.522;2024-03-25T07:13:45;8.05;78.72
68912;SHT31;55953;51.650;-0.522;2024-03-25T07:16:13;8.12;78.82
68912;SHT31;55953;51.650;-0.522;2024-03-25T07:18:40;8.13;78.86
68912;SHT31;55953;51.650;-0.522;2024-03-25T07:21:08;8.19;79.05
68912;SHT31;55953;51.650;-0.522;2024-03-25T07:23:35;8.31;78.88
68912;SHT31;55953;51.650;-0.522;2024-03-25T07:26:03;8.36;78.75
68912;SHT31;55953;51.650;-0.522;2024-03-25T07:28:31;8.41;78.93
68912;SHT31;55953;51.650;-0.522;2024-03-25T07:30:59;8.49;78.98
68912;SHT31;55953;51.650;-0.522;2024-03-25T07:33:26;8.59;79.04
68912;SHT31;55953;51.650;-0.522;2024-03-25T07:35:54;8.73;78.96
68912;SHT31;55953;51.650;-0.522;2024-03-25T07:38:22;8.85;78.95
68912;SHT31;55953;51.650;-0.522;2024-03-25T07:40:52;8.97;78.89
68912;SHT31;55953;51.650;-0.522;2024-03-25T07:43:20;9.09;78.80
68912;SHT31;55953;51.650;-0.522;2024-03-25T07:45:47;9.14;78.72
68912;SHT31;55953;51.650;-0.522;2024-03-25T07:48:15;9.23;78.71
68912;SHT31;55953;51.650;-0.522;2024-03-25T07:50:43;9.30;78.49
68912;SHT31;55953;51.650;-0.522;2024-03-25T07:53:10;9.32;78.39
68912;SHT31;55953;51.650;-0.522;2024-03-25T07:55:38;9.36;78.30
68912;SHT31;55953;51.650;-0.522;2024-03-25T07:58:06;9.48;78.51
68912;SHT31;55953;51.650;-0.522;2024-03-25T08:00:34;9.67;78.13
68912;SHT31;55953;51.650;-0.522;2024-03-25T08:03:02;9.73;77.66
68912;SHT31;55953;51.650;-0.522;2024-03-25T08:05:30;9.79;77.56
68912;SHT31;55953;51.650;-0.522;2024-03-25T08:07:58;9.85;77.48
68912;SHT31;55953;51.650;-0.522;2024-03-25T08:10:25;9.96;77.46
68912;SHT31;55953;51.650;-0.522;2024-03-25T08:12:53;10.10;77.50
68912;SHT31;55953;51.650;-0.522;2024-03-25T08:15:21;10.22;77.10
68912;SHT31;55953;51.650;-0.522;2024-03-25T08:17:48;10.26;76.46
68912;SHT31;55953;51.650;-0.522;2024-03-25T08:20:16;10.32;76.47
68912;SHT31;55953;51.650;-0.522;2024-03-25T08:22:44;10.41;76.08
68912;SHT31;55953;51.650;-0.522;2024-03-25T08:25:11;10.51;76.15
68912;SHT31;55953;51.650;-0.522;2024-03-25T08:27:39;10.67;76.30
68912;SHT31;55953;51.650;-0.522;2024-03-25T08:30:07;10.78;76.05
68912;SHT31;55953;51.650;-0.522;2024-03-25T08:32:35;10.89;75.33
68912;SHT31;55953;51.650;-0.522;2024-03-25T08:35:03;10.96;74.84
68912;SHT31;55953;51.650;-0.522;2024-03-25T08:37:31;11.10;74.56
68912;SHT31;55953;51.650;-0.522;2024-03-25T08:39:59;11.24;73.99
68912;SHT31;55953;51.650;-0.522;2024-03-25T08:42:26;11.36;72.86
68912;SHT31;55953;51.650;-0.522;2024-03-25T08:44:54;11.40;72.04
68912;SHT31;55953;51.650;-0.522;2024-03-25T08:47:22;11.44;72.00
68912;SHT31;55953;51.650;-0.522;2024-03-25T08:49:49;11.51;71.67
68912;SHT31;55953;51.650;-0.522;2024-03-25T08:52:17;11.51;71.43
68912;SHT31;55953;51.650;-0.522;2024-03-25T08:54:45;11.42;71.43
68912;SHT31;55953;51.650;-0.522;2024-03-25T08:57:13;11.23;71.26
68912;SHT31;55953;51.650;-0.522;2024-03-25T08:59:41;11.11;71.23
68912;SHT31;55953;51.650;-0.522;2024-03-25T09:02:08;11.00;71.52
68912;SHT31;55953;51.650;-0.522;2024-03-25T09:04:36;11.00;71.98
68912;SHT31;55953;51.650;-0.522;2024-03-25T09:07:04;11.19;72.51
68912;SHT31;55953;51.650;-0.522;2024-03-25T09:09:31;11.44;72.21
68912;SHT31;55953;51.650;-0.522;2024-03-25T09:12:18;11.62;71.66
68912;SHT31;55953;51.650;-0.522;2024-03-25T09:14:45;11.69;71.20
68912;SHT31;55953;51.650;-0.522;2024-03-25T09:17:13;11.66;70.94
68912;SHT31;55953;51.650;-0.522;2024-03-25T09:19:41;11.69;70.57
68912;SHT31;55953;51.650;-0.522;2024-03-25T09:22:09;11.69;70.11
68912;SHT31;55953;51.650;-0.522;2024-03-25T09:24:36;11.63;69.53
68912;SHT31;55953;51.650;-0.522;2024-03-25T09:27:04;11.59;69.27
68912;SHT31;55953;51.650;-0.522;2024-03-25T09:29:31;11.54;68.78
68912;SHT31;55953;51.650;-0.522;2024-03-25T09:31:59;11.52;68.92
68912;SHT31;55953;51.650;-0.522;2024-03-25T09:34:27;11.47;68.63
68912;SHT31;55953;51.650;-0.522;2024-03-25T09:36:54;11.40;68.58
68912;SHT31;55953;51.650;-0.522;2024-03-25T09:39:22;11.34;68.54
68912;SHT31;55953;51.650;-0.522;2024-03-25T09:41:50;11.34;69.16
68912;SHT31;55953;51.650;-0.522;2024-03-25T09:44:25;11.37;68.40
68912;SHT31;55953;51.650;-0.522;2024-03-25T09:46:53;11.37;68.72
68912;SHT31;55953;51.650;-0.522;2024-03-25T09:49:21;11.40;68.75
68912;SHT31;55953;51.650;-0.522;2024-03-25T09:51:50;11.34;68.37
68912;SHT31;55953;51.650;-0.522;2024-03-25T09:54:18;11.32;68.47
68912;SHT31;55953;51.650;-0.522;2024-03-25T09:56:46;11.30;68.58
68912;SHT31;55953;51.650;-0.522;2024-03-25T09:59:15;11.33;68.55
68912;SHT31;55953;51.650;-0.522;2024-03-25T10:01:44;11.34;68.69
68912;SHT31;55953;51.650;-0.522;2024-03-25T10:04:11;11.42;68.78
68912;SHT31;55953;51.650;-0.522;2024-03-25T10:06:39;11.46;68.61
68912;SHT31;55953;51.650;-0.522;2024-03-25T10:09:07;11.53;68.61
68912;SHT31;55953;51.650;-0.522;2024-03-25T10:11:35;11.54;66.81
68912;SHT31;55953;51.650;-0.522;2024-03-25T10:14:02;11.48;66.23
68912;SHT31;55953;51.650;-0.522;2024-03-25T10:16:30;11.44;66.22
68912;SHT31;55953;51.650;-0.522;2024-03-25T10:18:58;11.45;66.52
68912;SHT31;55953;51.650;-0.522;2024-03-25T10:21:25;11.50;65.67
68912;SHT31;55953;51.650;-0.522;2024-03-25T10:23:53;11.59;66.07
68912;SHT31;55953;51.650;-0.522;2024-03-25T10:26:29;11.65;65.13
68912;SHT31;55953;51.650;-0.522;2024-03-25T10:28:59;11.72;65.09
68912;SHT31;55953;51.650;-0.522;2024-03-25T10:31:32;11.78;64.28
68912;SHT31;55953;51.650;-0.522;2024-03-25T10:34:00;11.82;64.64
68912;SHT31;55953;51.650;-0.522;2024-03-25T10:36:28;11.92;64.03
68912;SHT31;55953;51.650;-0.522;2024-03-25T10:39:00;11.96;63.66
68912;SHT31;55953;51.650;-0.522;2024-03-25T10:41:33;12.07;63.77
68912;SHT31;55953;51.650;-0.522;2024-03-25T10:44:03;12.18;63.69
68912;SHT31;55953;51.650;-0.522;2024-03-25T10:46:34;12.32;64.10
68912;SHT31;55953;51.650;-0.522;2024-03-25T10:49:07;12.44;63.65
68912;SHT31;55953;51.650;-0.522;2024-03-25T10:51:51;12.45;62.51
68912;SHT31;55953;51.650;-0.522;2024-03-25T10:54:21;12.43;63.09
68912;SHT31;55953;51.650;-0.522;2024-03-25T10:56:50;12.54;63.45
68912;SHT31;55953;51.650;-0.522;2024-03-25T10:59:18;12.59;62.54
68912;SHT31;55953;51.650;-0.522;2024-03-25T11:01:49;12.60;62.38
68912;SHT31;55953;51.650;-0.522;2024-03-25T11:04:17;12.63;62.22
68912;SHT31;55953;51.650;-0.522;2024-03-25T11:06:46;12.66;62.23
68912;SHT31;55953;51.650;-0.522;2024-03-25T11:09:26;12.69;62.04
68912;SHT31;55953;51.650;-0.522;2024-03-25T11:11:53;12.69;61.84
68912;SHT31;55953;51.650;-0.522;2024-03-25T11:14:24;12.73;62.06
68912;SHT31;55953;51.650;-0.522;2024-03-25T11:16:53;12.68;61.85
68912;SHT31;55953;51.650;-0.522;2024-03-25T11:19:25;12.60;61.99
68912;SHT31;55953;51.650;-0.522;2024-03-25T11:22:05;12.44;61.54
68912;SHT31;55953;51.650;-0.522;2024-03-25T11:24:35;12.42;62.53
68912;SHT31;55953;51.650;-0.522;2024-03-25T11:27:07;12.50;62.48
68912;SHT31;55953;51.650;-0.522;2024-03-25T11:29:35;12.57;62.18
68912;SHT31;55953;51.650;-0.522;2024-03-25T11:32:03;12.66;62.63
68912;SHT31;55953;51.650;-0.522;2024-03-25T11:34:32;12.79;63.11
68912;SHT31;55953;51.650;-0.522;2024-03-25T11:37:00;12.94;62.33
68912;SHT31;55953;51.650;-0.522;2024-03-25T11:39:28;13.11;61.71
68912;SHT31;55953;51.650;-0.522;2024-03-25T11:41:59;13.14;61.50
68912;SHT31;55953;51.650;-0.522;2024-03-25T11:44:27;13.12;61.32
68912;SHT31;55953;51.650;-0.522;2024-03-25T11:46:56;13.17;60.80
68912;SHT31;55953;51.650;-0.522;2024-03-25T11:49:23;13.23;61.13
68912;SHT31;55953;51.650;-0.522;2024-03-25T11:51:52;13.34;61.11
68912;SHT31;55953;51.650;-0.522;2024-03-25T11:54:20;13.38;60.22
68912;SHT31;55953;51.650;-0.522;2024-03-25T11:56:47;13.37;60.26
68912;SHT31;55953;51.650;-0.522;2024-03-25T11:59:15;13.43;59.92
68912;SHT31;55953;51.650;-0.522;2024-03-25T12:01:43;13.53;60.48
68912;SHT31;55953;51.650;-0.522;2024-03-25T12:04:11;13.76;60.64
68912;SHT31;55953;51.650;-0.522;2024-03-25T12:06:53;13.98;60.06
68912;SHT31;55953;51.650;-0.522;2024-03-25T12:09:24;14.17;59.48
68912;SHT31;55953;51.650;-0.522;2024-03-25T12:12:10;14.25;59.54
68912;SHT31;55953;51.650;-0.522;2024-03-25T12:14:38;14.24;58.89
68912;SHT31;55953;51.650;-0.522;2024-03-25T12:17:05;14.28;59.43
68912;SHT31;55953;51.650;-0.522;2024-03-25T12:19:33;14.41;58.92
68912;SHT31;55953;51.650;-0.522;2024-03-25T12:22:01;14.44;58.76
68912;SHT31;55953;51.650;-0.522;2024-03-25T12:24:30;14.31;57.62
68912;SHT31;55953;51.650;-0.522;2024-03-25T12:26:58;14.14;58.23
68912;SHT31;55953;51.650;-0.522;2024-03-25T12:29:26;13.99;58.62
68912;SHT31;55953;51.650;-0.522;2024-03-25T12:31:57;13.87;58.35
68912;SHT31;55953;51.650;-0.522;2024-03-25T12:34:25;13.80;58.84
68912;SHT31;55953;51.650;-0.522;2024-03-25T12:37:02;13.71;59.44
68912;SHT31;55953;51.650;-0.522;2024-03-25T12:39:33;13.60;59.27
68912;SHT31;55953;51.650;-0.522;2024-03-25T12:42:04;13.57;59.49
68912;SHT31;55953;51.650;-0.522;2024-03-25T12:44:32;13.54;59.60
68912;SHT31;55953;51.650;-0.522;2024-03-25T12:46:59;13.60;59.61
68912;SHT31;55953;51.650;-0.522;2024-03-25T12:49:28;13.77;59.45
68912;SHT31;55953;51.650;-0.522;2024-03-25T12:51:55;13.90;58.94
68912;SHT31;55953;51.650;-0.522;2024-03-25T12:54:24;13.99;58.95
68912;SHT31;55953;51.650;-0.522;2024-03-25T12:56:51;14.01;58.39
68912;SHT31;55953;51.650;-0.522;2024-03-25T12:59:19;13.90;58.40
68912;SHT31;55953;51.650;-0.522;2024-03-25T13:01:47;13.90;58.68
68912;SHT31;55953;51.650;-0.522;2024-03-25T13:04:14;13.93;58.46
68912;SHT31;55953;51.650;-0.522;2024-03-25T13:06:42;14.03;58.30
68912;SHT31;55953;51.650;-0.522;2024-03-25T13:09:10;14.10;58.27
68912;SHT31;55953;51.650;-0.522;2024-03-25T13:11:38;14.13;57.92
68912;SHT31;55953;51.650;-0.522;2024-03-25T13:14:05;14.11;57.71
68912;SHT31;55953;51.650;-0.522;2024-03-25T13:16:36;14.09;57.61
68912;SHT31;55953;51.650;-0.522;2024-03-25T13:19:04;14.10;57.44
68912;SHT31;55953;51.650;-0.522;2024-03-25T13:21:31;14.06;57.58
68912;SHT31;55953;51.650;-0.522;2024-03-25T13:24:00;14.04;57.87
68912;SHT31;55953;51.650;-0.522;2024-03-25T13:26:28;13.97;57.72
68912;SHT31;55953;51.650;-0.522;2024-03-25T13:28:55;13.95;57.41
68912;SHT31;55953;51.650;-0.522;2024-03-25T13:31:23;14.00;57.80
68912;SHT31;55953;51.650;-0.522;2024-03-25T13:33:51;14.02;57.68
68912;SHT31;55953;51.650;-0.522;2024-03-25T13:36:19;13.89;57.64
68912;SHT31;55953;51.650;-0.522;2024-03-25T13:38:46;13.76;57.55
68912;SHT31;55953;51.650;-0.522;2024-03-25T13:41:14;13.72;57.97
68912;SHT31;55953;51.650;-0.522;2024-03-25T13:43:45;13.82;57.99
68912;SHT31;55953;51.650;-0.522;2024-03-25T13:46:14;14.04;57.49
68912;SHT31;55953;51.650;-0.522;2024-03-25T13:48:42;14.19;56.76
68912;SHT31;55953;51.650;-0.522;2024-03-25T13:51:10;14.30;56.55
68912;SHT31;55953;51.650;-0.522;2024-03-25T13:53:38;14.45;56.05
68912;SHT31;55953;51.650;-0.522;2024-03-25T13:56:05;14.56;55.87
68912;SHT31;55953;51.650;-0.522;2024-03-25T13:58:33;14.72;55.51
68912;SHT31;55953;51.650;-0.522;2024-03-25T14:01:01;14.85;55.44
68912;SHT31;55953;51.650;-0.522;2024-03-25T14:03:29;14.88;54.71
68912;SHT31;55953;51.650;-0.522;2024-03-25T14:05:56;14.77;54.20
68912;SHT31;55953;51.650;-0.522;2024-03-25T14:08:24;14.69;54.14
68912;SHT31;55953;51.650;-0.522;2024-03-25T14:10:58;14.69;53.99
68912;SHT31;55953;51.650;-0.522;2024-03-25T14:13:27;14.76;53.71
68912;SHT31;55953;51.650;-0.522;2024-03-25T14:15:56;14.84;53.52
68912;SHT31;55953;51.650;-0.522;2024-03-25T14:18:23;14.87;53.55
68912;SHT31;55953;51.650;-0.522;2024-03-25T14:20:51;14.80;52.99
68912;SHT31;55953;51.650;-0.522;2024-03-25T14:23:19;14.69;53.47
68912;SHT31;55953;51.650;-0.522;2024-03-25T14:25:47;14.65;53.00
68912;SHT31;55953;51.650;-0.522;2024-03-25T14:28:14;14.62;53.11
68912;SHT31;55953;51.650;-0.522;2024-03-25T14:30:42;14.62;52.69
68912;SHT31;55953;51.650;-0.522;2024-03-25T14:33:10;14.55;53.04
68912;SHT31;55953;51.650;-0.522;2024-03-25T14:35:37;14.49;53.24
68912;SHT31;55953;51.650;-0.522;2024-03-25T14:38:05;14.48;53.14
68912;SHT31;55953;51.650;-0.522;2024-03-25T14:40:32;14.51;53.58
68912;SHT31;55953;51.650;-0.522;2024-03-25T14:43:06;14.57;53.33
68912;SHT31;55953;51.650;-0.522;2024-03-25T14:45:34;14.65;53.12
68912;SHT31;55953;51.650;-0.522;2024-03-25T14:48:01;14.73;52.47
68912;SHT31;55953;51.650;-0.522;2024-03-25T14:50:29;14.67;52.74
68912;SHT31;55953;51.650;-0.522;2024-03-25T14:52:57;14.72;52.83
68912;SHT31;55953;51.650;-0.522;2024-03-25T14:55:24;14.73;52.80
68912;SHT31;55953;51.650;-0.522;2024-03-25T14:57:52;14.76;52.54
68912;SHT31;55953;51.650;-0.522;2024-03-25T15:00:20;14.67;51.56
68912;SHT31;55953;51.650;-0.522;2024-03-25T15:02:48;14.55;52.00
68912;SHT31;55953;51.650;-0.522;2024-03-25T15:05:15;14.43;52.16
68912;SHT31;55953;51.650;-0.522;2024-03-25T15:07:46;14.34;51.81
68912;SHT31;55953;51.650;-0.522;2024-03-25T15:10:14;14.26;52.45
68912;SHT31;55953;51.650;-0.522;2024-03-25T15:12:42;14.24;52.54
68912;SHT31;55953;51.650;-0.522;2024-03-25T15:15:10;14.22;52.71
68912;SHT31;55953;51.650;-0.522;2024-03-25T15:17:40;14.22;52.90
68912;SHT31;55953;51.650;-0.522;2024-03-25T15:20:07;14.17;52.46
68912;SHT31;55953;51.650;-0.522;2024-03-25T15:22:36;14.07;52.76
68912;SHT31;55953;51.650;-0.522;2024-03-25T15:25:05;14.03;52.95
68912;SHT31;55953;51.650;-0.522;2024-03-25T15:27:34;14.02;52.79
68912;SHT31;55953;51.650;-0.522;2024-03-25T15:30:03;14.05;53.28
68912;SHT31;55953;51.650;-0.522;2024-03-25T15:32:33;14.06;53.47